Time;durP1;ratioP1;P1;durP2;ratioP2;P2;SDS_P1;SDS_P2;PMS_P1;PMS_P2;Temp;Humidity;BMP_temperature;BMP_pressure;BME280_temperature;BME280_humidity;BME280_pressure;Samples;Min_cycle;Max_cycle;Signal;HPM_P1;HPM_P2
2022/12/01 00:01:17;;;;;;;5.30;3.03;;;;;;;2.40;74.46;103547.03;5090079;28;20048;-74
2022/12/01 00:03:44;;;;;;;4.18;2.42;;;;;;;2.40;74.46;103547.03;5087989;28;20125;-74
2022/12/01 00:06:14;;;;;;;4.88;2.95;;;;;;;2.39;74.87;103545.28;5089782;28;20047;-74
2022/12/01 00:10:24;;;;;;;6.45;3.33;;;;;;;2.42;74.73;103550.59;5087852;28;20051;-72
2022/12/01 00:11:27;;;;;;;5.28;2.88;;;;;;;2.43;74.76;103552.38;5087499;28;20064;-75
2022/12/01 00:13:54;;;;;;;5.32;2.50;;;;;;;2.37;74.62;103531.38;5088550;28;20079;-73
2022/12/01 00:16:20;;;;;;;5.03;2.97;;;;;;;2.44;74.84;103551.56;5089158;28;20052;-73
2022/12/01 00:18:49;;;;;;;7.28;3.10;;;;;;;2.43;74.86;103538.59;5091063;28;20055;-73
2022/12/01 00:21:19;;;;;;;8.88;3.78;;;;;;;2.44;74.80;103541.25;5088517;28;20048;-71
2022/12/01 00:23:47;;;;;;;5.70;3.28;;;;;;;2.45;74.77;103544.75;5087416;28;20180;-72
2022/12/01 00:26:14;;;;;;;6.78;3.95;;;;;;;2.45;74.43;103545.63;5088476;28;20047;-74
2022/12/01 00:28:41;;;;;;;7.28;4.15;;;;;;;2.44;74.48;103543.81;5087986;28;20503;-74
2022/12/01 00:31:09;;;;;;;7.78;3.97;;;;;;;2.45;75.03;103542.16;5085879;28;20109;-72
2022/12/01 00:33:39;;;;;;;11.32;4.35;;;;;;;2.45;75.28;103535.31;5088023;28;20047;-72
2022/12/01 00:36:06;;;;;;;7.47;3.85;;;;;;;2.47;74.92;103543.13;5087192;28;20076;-74
2022/12/01 00:38:34;;;;;;;8.98;4.15;;;;;;;2.48;74.76;103543.22;5089580;28;20441;-72
2022/12/01 00:41:01;;;;;;;8.63;3.22;;;;;;;2.50;74.69;103539.84;5086719;28;20040;-73
2022/12/01 00:43:28;;;;;;;10.18;4.90;;;;;;;2.42;75.04;103532.56;5088716;28;20052;-73
2022/12/01 00:45:56;;;;;;;6.47;4.18;;;;;;;2.50;75.31;103548.47;5087585;28;20052;-72
2022/12/01 00:48:22;;;;;;;6.05;3.47;;;;;;;2.52;75.49;103546.00;5089365;28;20063;-72
2022/12/01 00:50:51;;;;;;;7.70;4.45;;;;;;;2.51;75.47;103539.94;5086236;28;20101;-72
2022/12/01 00:53:17;;;;;;;8.60;4.03;;;;;;;2.52;74.65;103536.56;5086318;28;20105;-73
2022/12/01 00:55:45;;;;;;;7.90;4.07;;;;;;;2.53;75.13;103540.91;5085967;28;20044;-73
2022/12/01 00:58:12;;;;;;;9.02;4.32;;;;;;;2.53;74.66;103533.16;5088188;28;20044;-72
2022/12/01 01:00:39;;;;;;;9.05;4.07;;;;;;;2.50;74.83;103532.09;5086524;28;20048;-74
2022/12/01 01:03:07;;;;;;;4.82;3.17;;;;;;;2.53;75.03;103540.91;5088424;28;20054;-73
2022/12/01 01:05:36;;;;;;;4.20;2.80;;;;;;;2.54;75.13;103539.22;5088425;28;20760;-72
2022/12/01 01:08:06;;;;;;;6.10;3.70;;;;;;;2.55;75.07;103541.00;5089443;28;20044;-72
2022/12/01 01:10:33;;;;;;;5.70;3.38;;;;;;;2.56;74.73;103537.59;5086905;28;20093;-72
2022/12/01 01:13:01;;;;;;;6.78;3.53;;;;;;;2.57;75.37;103529.97;5087116;28;20108;-73
2022/12/01 01:15:28;;;;;;;3.75;2.50;;;;;;;2.58;75.28;103538.59;5087445;28;20453;-74
2022/12/01 01:17:55;;;;;;;5.68;3.22;;;;;;;2.48;75.24;103525.16;5087100;28;20085;-73
2022/12/01 01:20:21;;;;;;;4.65;2.80;;;;;;;2.59;74.82;103532.63;5087633;28;20077;-74
2022/12/01 01:22:48;;;;;;;5.32;3.38;;;;;;;2.60;74.73;103534.44;5086216;28;20560;-73
2022/12/01 01:25:15;;;;;;;5.35;2.58;;;;;;;2.38;75.19;103494.44;5086864;28;20135;-73
2022/12/01 01:27:42;;;;;;;4.38;2.60;;;;;;;2.63;75.48;103534.59;5087544;28;20044;-74
2022/12/01 01:30:12;;;;;;;5.07;2.50;;;;;;;2.62;75.02;103543.16;5085859;28;20052;-72
2022/12/01 01:32:38;;;;;;;3.65;2.55;;;;;;;2.63;74.95;103539.75;5089070;28;20044;-72
2022/12/01 01:35:06;;;;;;;3.63;2.15;;;;;;;2.64;75.24;103538.97;5082836;28;20051;-73
2022/12/01 01:37:33;;;;;;;4.68;2.50;;;;;;;2.63;74.90;103537.19;5087521;28;20449;-72
2022/12/01 01:39:59;;;;;;;4.03;2.38;;;;;;;2.64;75.45;103537.25;5087699;28;20047;-73
2022/12/01 01:42:26;;;;;;;4.00;2.58;;;;;;;2.63;75.14;103532.91;5086790;28;20048;-73
2022/12/01 01:44:55;;;;;;;5.85;3.00;;;;;;;2.66;74.86;103538.25;5086307;28;20113;-72
2022/12/01 01:47:27;;;;;;;6.63;2.75;;;;;;;2.63;75.26;103534.59;5087014;28;20059;-72
2022/12/01 01:49:57;;;;;;;3.13;2.08;;;;;;;2.64;74.87;103536.38;5089115;28;20101;-73
2022/12/01 01:52:24;;;;;;;3.65;3.25;;;;;;;2.68;74.68;103538.34;5078448;28;20049;-73
2022/12/01 01:54:54;;;;;;;3.53;2.15;;;;;;;2.67;75.34;103539.13;5083637;28;20052;-74
2022/12/01 01:57:27;;;;;;;5.55;2.20;;;;;;;2.68;74.73;103535.78;5085712;28;20044;-73
2022/12/01 01:59:57;;;;;;;7.97;3.10;;;;;;;2.69;74.95;103545.28;5087178;28;20445;-72
2022/12/01 02:02:25;;;;;;;4.72;2.55;;;;;;;2.70;75.29;103539.31;5088500;28;20182;-73
2022/12/01 02:04:57;;;;;;;4.85;2.60;;;;;;;2.69;75.16;103534.97;5082947;28;20052;-73
2022/12/01 02:07:24;;;;;;;4.47;2.53;;;;;;;2.69;74.69;103530.69;5082843;28;20040;-73
2022/12/01 02:09:51;;;;;;;4.13;2.45;;;;;;;2.70;75.28;103537.63;5086328;28;20048;-72
2022/12/01 02:12:36;;;;;;;3.38;2.10;;;;;;;2.70;74.73;103535.06;5086650;28;20053;-72
2022/12/01 02:15:19;;;;;;;3.95;1.80;;;;;;;2.70;75.31;103532.47;5084916;28;20113;-73
2022/12/01 02:17:57;;;;;;;5.18;2.17;;;;;;;2.70;74.59;103532.47;5082879;28;20968;-73
2022/12/01 02:21:09;;;;;;;4.80;3.03;;;;;;;2.72;75.22;103532.56;5087431;28;20461;-72
2022/12/01 02:24:07;;;;;;;4.55;2.25;;;;;;;2.72;75.24;103535.13;5086064;28;20040;-72
2022/12/01 02:26:44;;;;;;;6.00;3.55;;;;;;;2.72;75.05;103535.13;5086683;28;20101;-73
2022/12/01 02:29:41;;;;;;;5.32;1.98;;;;;;;2.73;75.21;103531.75;5084833;28;20044;-72
2022/12/01 02:32:18;;;;;;;3.80;2.50;;;;;;;2.73;75.42;103531.75;5085055;28;20083;-72
2022/12/01 02:34:55;;;;;;;3.08;1.77;;;;;;;2.70;75.32;103528.97;5088042;28;20056;-73
2022/12/01 02:37:28;;;;;;;3.90;2.42;;;;;;;2.71;75.31;103530.78;5087391;28;20502;-72
2022/12/01 02:40:03;;;;;;;4.95;1.85;;;;;;;2.76;75.18;103533.59;5088832;28;20573;-73
2022/12/01 02:42:50;;;;;;;3.63;2.10;;;;;;;2.74;75.37;103523.22;5089864;28;20052;-74
2022/12/01 02:45:25;;;;;;;4.22;2.13;;;;;;;2.75;74.78;103529.25;5091509;28;20495;-73
2022/12/01 02:47:57;;;;;;;2.72;2.28;;;;;;;2.75;75.31;103524.97;5091421;28;20048;-74
2022/12/01 02:50:26;;;;;;;5.25;2.65;;;;;;;2.77;75.07;103517.34;5090503;28;20056;-73
2022/12/01 02:52:54;;;;;;;1.98;1.77;;;;;;;2.76;75.49;103520.72;5091869;28;20733;-73
2022/12/01 02:55:21;;;;;;;4.35;2.60;;;;;;;2.77;75.34;103520.81;5089042;28;20118;-74
2022/12/01 02:57:48;;;;;;;2.97;2.03;;;;;;;2.78;75.47;103519.09;5089685;28;20644;-75
2022/12/01 03:00:17;;;;;;;3.78;2.13;;;;;;;2.78;75.69;103522.56;5085931;28;20090;-74
2022/12/01 03:03:00;;;;;;;4.15;1.98;;;;;;;2.79;75.43;103521.78;5089671;28;20044;-74
2022/12/01 03:05:36;;;;;;;4.45;2.58;;;;;;;2.80;75.53;103520.97;5088664;28;20055;-74
2022/12/01 03:08:12;;;;;;;4.38;2.28;;;;;;;2.80;75.35;103523.56;5088439;28;20037;-75
2022/12/01 03:10:48;;;;;;;4.78;2.28;;;;;;;2.81;75.17;103515.00;5089716;28;20495;-74
2022/12/01 03:13:30;;;;;;;2.42;1.73;;;;;;;2.82;74.96;103521.09;5090469;28;20490;-75
2022/12/01 03:16:03;;;;;;;1.90;1.35;;;;;;;2.83;75.39;103516.00;5090289;28;20437;-74
2022/12/01 03:18:37;;;;;;;2.67;1.70;;;;;;;2.62;75.04;103481.22;5090147;28;20048;-76
2022/12/01 03:21:10;;;;;;;2.40;1.70;;;;;;;2.84;75.34;103520.34;5085730;28;20048;-77
2022/12/01 03:23:41;;;;;;;2.80;1.80;;;;;;;2.85;75.78;103516.97;5080867;28;20044;-76
2022/12/01 03:26:15;;;;;;;2.25;1.42;;;;;;;2.85;75.29;103522.16;5091490;28;20180;-76
2022/12/01 03:28:46;;;;;;;2.90;1.63;;;;;;;2.79;75.00;103511.47;5089789;28;20106;-76
2022/12/01 03:31:16;;;;;;;2.53;1.77;;;;;;;2.87;75.18;103520.50;5087452;28;20452;-76
2022/12/01 03:33:49;;;;;;;3.75;2.08;;;;;;;2.87;75.02;103517.94;5089666;28;20200;-76
2022/12/01 03:36:22;;;;;;;3.50;2.00;;;;;;;2.88;75.07;103526.59;5087581;28;20624;-76
2022/12/01 03:38:55;;;;;;;3.33;1.63;;;;;;;2.88;75.12;103524.91;5088084;28;20052;-76
2022/12/01 03:41:26;;;;;;;2.90;1.90;;;;;;;2.89;75.56;103524.09;5090800;28;20048;-76
2022/12/01 03:44:00;;;;;;;2.03;1.52;;;;;;;2.80;75.32;103512.34;5087852;28;20043;-76
2022/12/01 03:46:39;;;;;;;4.72;1.77;;;;;;;2.89;75.14;103518.91;5085363;28;20450;-76
2022/12/01 03:49:08;;;;;;;2.00;1.35;;;;;;;2.90;75.03;103520.72;5090451;28;20044;-76
2022/12/01 03:51:44;;;;;;;2.47;1.27;;;;;;;2.89;75.52;103524.09;5090112;28;20052;-76
2022/12/01 03:54:17;;;;;;;1.20;1.05;;;;;;;2.91;74.97;103519.91;5089237;28;20491;-77
2022/12/01 03:56:48;;;;;;;2.67;1.55;;;;;;;2.91;75.38;103519.91;5085483;28;20074;-78
2022/12/01 03:59:17;;;;;;;2.92;1.42;;;;;;;2.92;75.11;103521.66;5092101;28;20090;-78
2022/12/01 04:01:45;;;;;;;1.58;1.33;;;;;;;2.92;75.46;103524.25;5089207;28;20127;-78
2022/12/01 04:04:14;;;;;;;3.25;1.65;;;;;;;2.82;75.21;103511.66;5092627;28;20048;-78
2022/12/01 04:06:45;;;;;;;2.45;1.70;;;;;;;2.93;75.13;103525.13;5087657;28;20109;-78
2022/12/01 04:09:12;;;;;;;2.97;1.58;;;;;;;2.92;75.45;103519.09;5090739;28;20051;-79
2022/12/01 04:14:22;;;;;;;2.55;1.85;;;;;;;2.94;75.44;103526.94;5091049;28;20058;-78
2022/12/01 04:16:49;;;;;;;3.00;2.00;;;;;;;2.95;75.36;103528.72;5092204;28;20499;-77
2022/12/01 04:19:17;;;;;;;1.63;1.40;;;;;;;2.95;75.25;103520.06;5090491;28;20105;-78
2022/12/01 04:21:44;;;;;;;2.63;1.67;;;;;;;2.96;75.56;103529.59;5091110;28;20415;-78
2022/12/01 04:24:11;;;;;;;3.25;1.92;;;;;;;2.96;75.48;103519.25;5087764;28;20454;-77
2022/12/01 04:26:38;;;;;;;2.28;1.70;;;;;;;2.96;75.40;103520.19;5088333;28;20094;-78
2022/12/01 04:29:08;;;;;;;4.32;1.63;;;;;;;2.96;75.03;103520.19;5092105;28;20411;-78
2022/12/01 04:31:35;;;;;;;3.53;1.52;;;;;;;2.97;75.49;103521.06;5091423;28;20044;-78
2022/12/01 04:34:01;;;;;;;3.17;1.35;;;;;;;2.97;75.43;103521.06;5090952;28;20043;-78
2022/12/01 04:36:32;;;;;;;2.03;1.48;;;;;;;2.98;75.50;103521.13;5088672;28;21065;-78
2022/12/01 04:38:59;;;;;;;6.05;1.83;;;;;;;2.99;75.64;103524.59;5093143;28;20093;-77
2022/12/01 04:41:26;;;;;;;1.95;1.58;;;;;;;3.00;75.21;103528.97;5086800;28;20052;-78
2022/12/01 04:43:53;;;;;;;2.47;1.52;;;;;;;3.00;75.62;103528.97;5089420;28;20491;-78
2022/12/01 04:46:20;;;;;;;2.47;2.00;;;;;;;3.00;75.11;103528.97;5090022;28;20098;-77
2022/12/01 04:48:48;;;;;;;3.83;1.55;;;;;;;3.01;75.73;103533.34;5092958;28;20480;-77
2022/12/01 04:51:14;;;;;;;2.47;1.55;;;;;;;3.01;75.63;103528.16;5091427;28;20051;-77
2022/12/01 04:53:43;;;;;;;3.38;1.67;;;;;;;3.02;75.26;103525.69;5093512;28;20052;-78
2022/12/01 04:56:09;;;;;;;2.45;1.80;;;;;;;2.96;75.67;103514.09;5091618;28;20131;-78
2022/12/01 04:58:37;;;;;;;1.92;1.10;;;;;;;3.03;75.50;103521.41;5091959;28;20055;-78
2022/12/01 05:01:06;;;;;;;1.38;1.25;;;;;;;2.95;75.44;103517.50;5087671;28;20091;-78
2022/12/01 05:03:37;;;;;;;3.67;1.20;;;;;;;3.03;75.43;103524.88;5091142;28;20074;-78
2022/12/01 05:06:05;;;;;;;2.13;1.13;;;;;;;3.04;75.57;103524.06;5088078;28;20044;-78
2022/12/01 05:08:31;;;;;;;1.80;0.90;;;;;;;2.98;75.78;103515.09;5078712;28;20044;-78
2022/12/01 05:11:00;;;;;;;0.95;0.75;;;;;;;3.05;75.19;103519.81;5091082;28;20404;-78
2022/12/01 05:13:27;;;;;;;1.38;0.88;;;;;;;3.07;75.17;103523.34;5091842;28;20123;-78
2022/12/01 05:16:03;;;;;;;1.60;0.93;;;;;;;3.07;75.44;103528.50;5091125;28;20047;-78
2022/12/01 05:18:30;;;;;;;3.60;1.17;;;;;;;2.86;75.19;103498.09;5090421;28;20108;-78
2022/12/01 05:20:55;;;;;;;1.30;1.20;;;;;;;3.07;75.51;103526.81;5090666;28;20461;-78
2022/12/01 05:23:22;;;;;;;1.55;1.02;;;;;;;3.09;75.13;103526.91;5084422;28;20065;-78
2022/12/01 05:25:49;;;;;;;1.75;1.00;;;;;;;3.08;75.63;103536.34;5089129;28;20043;-77
2022/12/01 05:28:17;;;;;;;1.55;1.00;;;;;;;3.09;75.60;103537.25;5091347;28;20056;-77
2022/12/01 05:30:44;;;;;;;2.58;1.20;;;;;;;3.10;75.51;103539.00;5090696;28;20047;-79
2022/12/01 05:33:11;;;;;;;3.95;1.13;;;;;;;3.11;74.95;103533.94;5089430;28;20463;-78
2022/12/01 05:35:38;;;;;;;1.63;1.00;;;;;;;3.10;75.18;103537.34;5086778;28;20101;-78
2022/12/01 05:38:04;;;;;;;1.05;0.68;;;;;;;3.11;74.90;103541.69;5087754;28;20047;-78
2022/12/01 05:40:31;;;;;;;1.52;1.10;;;;;;;3.01;75.34;103520.41;5087441;28;20045;-78
2022/12/01 05:42:58;;;;;;;1.27;0.80;;;;;;;3.11;75.66;103545.97;5082736;28;20058;-78
2022/12/01 05:45:26;;;;;;;1.10;0.90;;;;;;;3.11;75.39;103546.88;5083939;28;20078;-78
2022/12/01 05:47:54;;;;;;;0.80;0.77;;;;;;;3.12;75.64;103553.78;5089971;28;20522;-79
2022/12/01 05:50:22;;;;;;;1.83;0.75;;;;;;;3.11;74.94;103559.78;5088877;28;20097;-78
2022/12/01 05:52:49;;;;;;;0.95;0.82;;;;;;;3.12;74.98;103552.91;5089273;28;20434;-80
2022/12/01 05:55:15;;;;;;;2.72;0.95;;;;;;;3.05;75.18;103543.06;5082414;28;20040;-80
2022/12/01 05:57:42;;;;;;;1.88;1.00;;;;;;;3.12;75.65;103558.06;5088874;28;20047;-81
2022/12/01 06:00:10;;;;;;;1.67;0.93;;;;;;;3.10;75.08;103551.94;5089080;28;20051;-80
2022/12/01 06:02:38;;;;;;;1.63;1.10;;;;;;;3.12;75.63;103558.06;5087201;28;20407;-80
2022/12/01 06:05:07;;;;;;;1.50;0.85;;;;;;;3.12;75.03;103558.06;5089038;28;20043;-80
2022/12/01 06:07:34;;;;;;;2.00;1.05;;;;;;;3.12;75.08;103558.06;5090432;28;20146;-80
2022/12/01 06:10:01;;;;;;;2.05;0.73;;;;;;;3.12;75.31;103563.25;5090612;28;20044;-80
2022/12/01 06:12:28;;;;;;;1.58;0.80;;;;;;;3.12;75.25;103555.50;5083677;28;20048;-79
2022/12/01 06:14:55;;;;;;;0.85;0.60;;;;;;;3.11;75.58;103556.31;5070047;28;20450;-80
2022/12/01 06:17:22;;;;;;;1.55;0.75;;;;;;;3.11;74.81;103562.34;5071862;28;20102;-80
2022/12/01 06:19:50;;;;;;;1.48;0.77;;;;;;;3.11;75.43;103559.78;5071998;28;20102;-79
2022/12/01 06:22:17;;;;;;;2.20;0.70;;;;;;;3.11;74.97;103562.34;5067101;28;20040;-79
2022/12/01 06:24:43;;;;;;;2.35;0.90;;;;;;;3.11;75.27;103569.22;5067253;28;20088;-81
2022/12/01 06:27:10;;;;;;;1.20;0.85;;;;;;;3.08;75.35;103561.31;5068617;28;20048;-81
2022/12/01 06:29:37;;;;;;;1.38;1.08;;;;;;;3.10;74.79;103568.34;5065828;28;20048;-81
2022/12/01 06:32:04;;;;;;;2.17;0.82;;;;;;;3.10;74.81;103563.16;5069729;28;20212;-85
2022/12/01 06:34:31;;;;;;;2.90;0.95;;;;;;;3.09;75.28;103569.13;5065942;28;20569;-85
2022/12/01 06:36:59;;;;;;;2.50;0.60;;;;;;;3.08;74.58;103562.19;5066452;28;20078;-86
2022/12/01 06:39:26;;;;;;;6.63;0.98;;;;;;;3.07;75.13;103564.66;5066813;28;20095;-82
2022/12/01 06:41:52;;;;;;;3.28;1.13;;;;;;;3.06;75.10;103562.91;5068698;28;20433;-82
2022/12/01 06:44:19;;;;;;;0.82;0.70;;;;;;;3.04;74.81;103564.50;5073245;28;20044;-80
2022/12/01 06:46:46;;;;;;;3.75;1.10;;;;;;;2.93;75.10;103546.72;5070496;28;20521;-81
2022/12/01 06:49:13;;;;;;;1.35;1.10;;;;;;;3.04;75.21;103570.53;5072738;28;20041;-81
2022/12/01 06:51:40;;;;;;;1.30;0.70;;;;;;;3.03;75.11;103568.78;5070005;28;20496;-73
2022/12/01 06:54:08;;;;;;;1.35;0.98;;;;;;;3.02;75.17;103573.88;5070347;28;20113;-73
2022/12/01 06:56:35;;;;;;;2.05;0.85;;;;;;;3.01;74.34;103570.38;5066881;28;20048;-74
2022/12/01 06:59:02;;;;;;;3.83;0.90;;;;;;;2.98;74.82;103572.78;5069577;28;20044;-74
2022/12/01 07:01:28;;;;;;;1.90;1.13;;;;;;;3.00;74.87;103575.47;5069100;28;20098;-76
2022/12/01 07:03:55;;;;;;;2.75;1.33;;;;;;;2.98;74.91;103574.47;5067357;28;20075;-75
2022/12/01 07:06:22;;;;;;;1.23;0.85;;;;;;;2.97;74.54;103572.72;5067771;28;20110;-75
2022/12/01 07:08:49;;;;;;;1.50;1.02;;;;;;;2.95;74.85;103574.31;5069834;28;20036;-76
2022/12/01 07:11:17;;;;;;;2.92;1.48;;;;;;;2.95;74.49;103579.47;5070376;28;20048;-76
2022/12/01 07:13:45;;;;;;;2.35;1.60;;;;;;;2.94;74.86;103573.41;5070552;28;20098;-74
2022/12/01 07:16:12;;;;;;;2.08;1.00;;;;;;;2.93;74.60;103577.69;5067648;28;20044;-74
2022/12/01 07:18:39;;;;;;;1.48;0.80;;;;;;;2.91;74.63;103568.06;5065420;28;20040;-74
2022/12/01 07:21:10;;;;;;;1.67;0.93;;;;;;;2.90;74.57;103569.78;5067578;28;20106;-74
2022/12/01 07:23:37;;;;;;;2.42;1.38;;;;;;;2.90;74.24;103571.44;5064695;28;20040;-75
2022/12/01 07:26:06;;;;;;;1.90;1.38;;;;;;;2.88;74.50;103573.94;5068945;28;20102;-73
2022/12/01 07:28:35;;;;;;;2.00;1.38;;;;;;;2.89;74.16;103573.13;5067210;28;20056;-74
2022/12/01 07:31:03;;;;;;;5.10;1.77;;;;;;;2.87;74.32;103572.16;5066127;28;20041;-73
2022/12/01 07:33:30;;;;;;;1.80;1.20;;;;;;;2.87;74.96;103573.84;5064388;28;20059;-75
2022/12/01 07:35:57;;;;;;;2.20;1.35;;;;;;;2.86;74.79;103575.53;5064084;28;20083;-75
2022/12/01 07:38:24;;;;;;;2.38;1.75;;;;;;;2.83;74.70;103571.91;5068610;28;20098;-75
2022/12/01 07:40:51;;;;;;;1.80;1.05;;;;;;;2.85;74.47;103578.06;5066104;28;20044;-74
2022/12/01 07:43:18;;;;;;;1.58;1.45;;;;;;;2.84;75.15;103582.28;5068757;28;20063;-74
2022/12/01 07:45:46;;;;;;;3.22;1.75;;;;;;;2.79;74.25;103583.75;5068971;28;20056;-73
2022/12/01 07:48:13;;;;;;;2.38;1.10;;;;;;;2.83;74.78;103596.03;5068692;28;20048;-74
2022/12/01 07:50:39;;;;;;;2.45;1.40;;;;;;;2.82;74.68;103594.25;5069314;28;20045;-74
2022/12/01 07:53:06;;;;;;;2.22;1.35;;;;;;;2.81;74.91;103588.97;5065874;28;20037;-74
2022/12/01 07:55:33;;;;;;;1.75;0.95;;;;;;;2.81;74.86;103591.56;5069281;28;20040;-74
2022/12/01 07:58:00;;;;;;;1.77;1.20;;;;;;;2.78;74.90;103587.09;5066211;28;20052;-75
2022/12/01 08:00:27;;;;;;;2.20;1.23;;;;;;;2.80;74.49;103595.84;5067721;28;20415;-73
2022/12/01 08:02:55;;;;;;;2.28;1.35;;;;;;;2.81;74.83;103604.47;5066933;28;20148;-75
2022/12/01 08:05:22;;;;;;;2.88;1.20;;;;;;;2.77;74.50;103590.50;5067442;28;20045;-74
2022/12/01 08:07:48;;;;;;;2.13;1.30;;;;;;;2.80;74.60;103593.25;5069061;28;20049;-74
2022/12/01 08:10:15;;;;;;;2.35;1.10;;;;;;;2.77;75.00;103595.66;5067742;28;20044;-74
2022/12/01 08:12:42;;;;;;;2.85;1.33;;;;;;;2.80;74.89;103605.28;5071810;28;20443;-82
2022/12/01 08:15:10;;;;;;;3.50;0.95;;;;;;;2.79;74.69;103596.66;5072558;28;20045;-74
2022/12/01 08:17:36;;;;;;;2.15;1.27;;;;;;;2.78;75.09;103600.00;5067975;28;20094;-74
2022/12/01 08:20:07;;;;;;;1.83;0.95;;;;;;;2.79;74.88;103608.66;5064329;28;20104;-74
2022/12/01 08:22:34;;;;;;;2.08;0.82;;;;;;;2.80;74.97;103610.44;5068415;28;20444;-75
2022/12/01 08:25:00;;;;;;;2.00;1.23;;;;;;;2.78;74.86;103612.03;5062050;28;20500;-74
2022/12/01 08:27:27;;;;;;;2.92;1.23;;;;;;;2.79;75.19;103609.56;5069556;28;20087;-74
2022/12/01 08:29:54;;;;;;;1.10;0.90;;;;;;;2.79;74.82;103606.97;5067698;28;20044;-72
2022/12/01 08:32:21;;;;;;;1.90;1.27;;;;;;;2.81;75.26;103609.63;5068142;28;20437;-73
2022/12/01 08:34:47;;;;;;;1.35;0.95;;;;;;;2.80;75.17;103606.16;5066713;28;20048;-74
2022/12/01 08:37:16;;;;;;;2.47;1.10;;;;;;;2.81;74.92;103604.47;5067090;28;20045;-75
2022/12/01 08:39:42;;;;;;;4.93;1.50;;;;;;;2.81;75.15;103607.94;5065484;28;20499;-74
2022/12/01 08:42:09;;;;;;;1.70;1.10;;;;;;;2.81;74.91;103607.94;5068683;28;20053;-75
2022/12/01 08:44:36;;;;;;;3.75;1.48;;;;;;;2.81;75.21;103607.06;5065190;28;20060;-74
2022/12/01 08:47:02;;;;;;;2.65;1.48;;;;;;;2.82;75.25;103619.19;5067275;28;20060;-74
2022/12/01 08:49:29;;;;;;;4.15;2.05;;;;;;;2.82;75.61;103614.91;5066076;28;20097;-74
2022/12/01 08:51:56;;;;;;;4.05;1.88;;;;;;;2.78;75.63;103605.19;5065052;28;20098;-80
2022/12/01 08:54:24;;;;;;;4.88;2.13;;;;;;;2.83;75.34;103611.50;5069383;28;20105;-75
2022/12/01 08:56:51;;;;;;;4.07;1.83;;;;;;;2.83;75.40;103606.34;5069659;28;20104;-75
2022/12/01 08:59:18;;;;;;;3.90;1.92;;;;;;;2.82;75.10;103609.75;5066337;28;20503;-74
2022/12/01 09:01:53;;;;;;;5.93;2.88;;;;;;;2.85;75.03;103609.91;5067940;28;20052;-75
2022/12/01 09:04:22;;;;;;;3.92;1.83;;;;;;;2.85;75.29;103604.75;5066566;28;20473;-76
2022/12/01 09:06:50;;;;;;;3.80;2.17;;;;;;;2.83;75.61;103597.72;5063841;28;20098;-76
2022/12/01 09:09:19;;;;;;;4.30;1.95;;;;;;;2.87;75.83;103613.47;5064103;28;20068;-75
2022/12/01 09:11:48;;;;;;;2.83;1.55;;;;;;;2.87;75.32;103608.28;5066069;28;20465;-75
2022/12/01 09:14:17;;;;;;;4.00;1.75;;;;;;;2.83;75.68;103601.19;5066188;28;20098;-75
2022/12/01 09:16:46;;;;;;;5.30;2.10;;;;;;;2.90;75.17;103605.00;5066244;28;20052;-75
2022/12/01 09:19:13;;;;;;;5.28;2.50;;;;;;;2.91;75.17;103612.84;5067420;28;20484;-76
2022/12/01 09:21:41;;;;;;;4.88;2.25;;;;;;;2.71;76.07;103579.81;5068519;28;20542;-78
2022/12/01 09:24:11;;;;;;;4.75;2.42;;;;;;;2.90;75.74;103612.75;5065687;28;20044;-77
2022/12/01 09:26:37;;;;;;;4.75;1.95;;;;;;;2.95;75.70;103618.19;5068187;28;20047;-75
2022/12/01 09:29:09;;;;;;;5.75;2.20;;;;;;;2.89;75.62;103606.69;5066428;28;20524;-76
2022/12/01 09:31:37;;;;;;;4.03;2.25;;;;;;;2.98;75.35;103613.22;5066069;28;20040;-74
2022/12/01 09:34:06;;;;;;;3.10;2.00;;;;;;;2.99;75.77;103617.56;5068071;28;20045;-74
2022/12/01 09:36:34;;;;;;;9.75;2.90;;;;;;;3.00;75.88;103619.34;5068101;28;20098;-75
2022/12/01 09:39:01;;;;;;;6.63;3.58;;;;;;;3.01;76.13;103622.00;5066985;28;20051;-74
2022/12/01 09:41:33;;;;;;;3.83;2.25;;;;;;;3.03;76.10;103617.84;5067716;28;20057;-76
2022/12/01 09:44:04;;;;;;;5.97;2.15;;;;;;;3.04;76.43;103616.13;5063686;28;20091;-74
2022/12/01 09:46:40;;;;;;;3.67;1.80;;;;;;;3.05;75.83;103615.34;5067333;28;20480;-74
2022/12/01 09:49:15;;;;;;;6.68;3.28;;;;;;;3.08;76.19;103625.88;5068836;28;20084;-74
2022/12/01 09:51:42;;;;;;;2.75;1.63;;;;;;;3.09;76.06;103620.78;5069064;28;20049;-74
2022/12/01 09:54:12;;;;;;;3.10;1.60;;;;;;;3.12;75.89;103617.47;5071561;28;20090;-74
2022/12/01 09:56:42;;;;;;;4.32;2.35;;;;;;;3.12;75.83;103613.19;5069537;28;20076;-74
2022/12/01 09:59:17;;;;;;;2.58;1.50;;;;;;;3.12;75.88;103607.16;5068789;28;20113;-75
2022/12/01 10:01:49;;;;;;;3.88;1.63;;;;;;;3.15;76.51;103602.16;5070634;28;20044;-76
2022/12/01 10:04:20;;;;;;;3.95;1.83;;;;;;;3.18;76.45;103599.75;5071279;28;20049;-77
2022/12/01 10:06:51;;;;;;;3.78;2.55;;;;;;;3.20;76.50;103598.16;5068203;28;20045;-74
2022/12/01 10:09:24;;;;;;;6.35;3.40;;;;;;;3.22;76.52;103606.88;5072823;28;20044;-75
2022/12/01 10:11:54;;;;;;;3.15;1.90;;;;;;;3.20;76.19;103592.97;5070529;28;20049;-74
2022/12/01 10:14:21;;;;;;;3.85;2.10;;;;;;;3.23;76.21;103592.28;5070777;28;20516;-76
2022/12/01 10:17:02;;;;;;;4.90;2.85;;;;;;;3.25;76.49;103590.69;5069490;28;20040;-75
2022/12/01 10:19:34;;;;;;;2.42;1.75;;;;;;;3.28;76.60;103596.91;5069067;28;20052;-73
2022/12/01 10:22:16;;;;;;;2.92;1.42;;;;;;;3.31;76.71;103598.75;5070465;28;20078;-74
2022/12/01 10:24:53;;;;;;;1.55;1.33;;;;;;;3.34;76.04;103596.34;5069423;28;20048;-76
2022/12/01 10:27:33;;;;;;;1.48;1.08;;;;;;;3.35;76.65;103599.00;5071746;28;20102;-73
2022/12/01 10:30:05;;;;;;;2.88;1.38;;;;;;;3.33;76.60;103600.63;5070857;28;20415;-73
2022/12/01 10:32:44;;;;;;;2.38;1.05;;;;;;;3.40;76.54;103600.97;5068628;28;20135;-72
2022/12/01 10:35:14;;;;;;;4.05;1.67;;;;;;;3.42;76.92;103601.97;5069349;28;20102;-76
2022/12/01 10:37:44;;;;;;;3.33;2.03;;;;;;;3.44;76.70;103597.75;5068125;28;20074;-71
2022/12/01 10:40:13;;;;;;;2.75;1.63;;;;;;;3.45;76.36;103591.81;5069048;28;20041;-75
2022/12/01 10:42:42;;;;;;;5.38;1.60;;;;;;;3.43;76.40;103588.22;5070264;28;20052;-75
2022/12/01 10:45:15;;;;;;;3.75;1.73;;;;;;;3.51;76.83;103594.72;5068332;28;20129;-75
2022/12/01 10:48:09;;;;;;;4.13;2.03;;;;;;;3.49;76.42;103591.16;5069913;28;20087;-75
2022/12/01 10:50:37;;;;;;;5.47;1.30;;;;;;;3.53;76.58;103587.91;5067395;28;20420;-75
2022/12/01 10:53:04;;;;;;;2.97;1.30;;;;;;;3.56;76.89;103598.47;5068519;28;20045;-75
2022/12/01 10:55:35;;;;;;;2.25;1.48;;;;;;;3.61;76.63;103599.56;5069976;28;20044;-75
2022/12/01 10:58:12;;;;;;;2.60;1.48;;;;;;;3.62;76.66;103595.31;5068979;28;20044;-75
2022/12/01 11:00:43;;;;;;;2.72;2.28;;;;;;;3.62;76.98;103597.91;5068498;28;20102;-76
2022/12/01 11:03:21;;;;;;;2.78;1.70;;;;;;;3.66;76.90;103600.72;5067843;28;20044;-75
2022/12/01 11:05:52;;;;;;;3.15;1.65;;;;;;;3.67;76.99;103597.34;5066653;28;20729;-76
2022/12/01 11:08:24;;;;;;;1.25;1.15;;;;;;;3.69;76.98;103600.91;5066297;28;20044;-75
2022/12/01 11:10:51;;;;;;;1.52;1.17;;;;;;;3.72;76.89;103606.22;5069904;28;20044;-75
2022/12/01 11:13:22;;;;;;;2.55;1.55;;;;;;;3.73;76.88;103599.34;5066467;28;20077;-76
2022/12/01 11:15:52;;;;;;;1.48;1.10;;;;;;;3.77;76.78;103604.78;5069618;28;20060;-76
2022/12/01 11:18:24;;;;;;;1.75;1.20;;;;;;;3.79;76.59;103604.91;5067748;28;20443;-75
2022/12/01 11:21:07;;;;;;;3.58;1.80;;;;;;;3.79;76.50;103603.19;5068026;28;20044;-75
2022/12/01 11:23:37;;;;;;;3.70;2.60;;;;;;;3.83;76.62;103606.81;5067001;28;20094;-75
2022/12/01 11:26:10;;;;;;;2.75;1.73;;;;;;;3.76;76.41;103589.22;5060465;28;20040;-76
2022/12/01 11:28:43;;;;;;;2.90;1.60;;;;;;;3.86;76.67;103599.22;5067641;28;20074;-79
2022/12/01 11:31:10;;;;;;;2.78;1.33;;;;;;;3.87;76.62;103606.22;5067156;28;20053;-75
2022/12/01 11:33:45;;;;;;;1.98;0.88;;;;;;;3.89;76.49;103598.50;5069520;28;20156;-75
2022/12/01 11:36:21;;;;;;;3.20;1.23;;;;;;;3.88;76.14;103600.22;5069292;28;20504;-75
2022/12/01 11:38:49;;;;;;;1.27;0.73;;;;;;;3.80;76.14;103580.81;5068062;28;20823;-75
2022/12/01 11:41:28;;;;;;;2.85;1.00;;;;;;;3.89;76.08;103588.16;5069253;28;20102;-75
2022/12/01 11:43:55;;;;;;;1.55;0.85;;;;;;;3.83;76.50;103576.69;5066732;28;20053;-75
2022/12/01 11:46:30;;;;;;;1.20;0.70;;;;;;;3.90;76.35;103583.09;5067852;28;20084;-75
2022/12/01 11:48:59;;;;;;;1.83;1.05;;;;;;;3.93;76.51;103582.38;5069681;28;20102;-75